sensor_id;sensor_type;location;lat;lon;timestamp;temperature;humidity
23560;DHT22;11958;50.836;4.438;2022-09-17T00:00:20;11.60;89.60
23560;DHT22;11958;50.836;4.438;2022-09-17T00:02:50;11.50;89.80
23560;DHT22;11958;50.836;4.438;2022-09-17T00:05:23;11.80;89.80
23560;DHT22;11958;50.836;4.438;2022-09-17T00:07:52;11.90;89.80
23560;DHT22;11958;50.836;4.438;2022-09-17T00:10:19;12.00;89.20
23560;DHT22;11958;50.836;4.438;2022-09-17T00:12:45;12.10;89.50
23560;DHT22;11958;50.836;4.438;2022-09-17T00:15:12;11.80;89.70
23560;DHT22;11958;50.836;4.438;2022-09-17T00:17:38;11.70;90.70
23560;DHT22;11958;50.836;4.438;2022-09-17T00:20:04;11.90;90.30
23560;DHT22;11958;50.836;4.438;2022-09-17T00:22:32;12.00;89.00
23560;DHT22;11958;50.836;4.438;2022-09-17T00:24:57;11.80;90.20
23560;DHT22;11958;50.836;4.438;2022-09-17T00:27:23;11.80;90.50
23560;DHT22;11958;50.836;4.438;2022-09-17T00:29:49;11.70;89.80
23560;DHT22;11958;50.836;4.438;2022-09-17T00:32:14;11.60;89.60
23560;DHT22;11958;50.836;4.438;2022-09-17T00:34:41;11.60;90.70
23560;DHT22;11958;50.836;4.438;2022-09-17T00:37:07;11.80;90.80
23560;DHT22;11958;50.836;4.438;2022-09-17T00:39:32;11.90;90.20
23560;DHT22;11958;50.836;4.438;2022-09-17T00:42:01;11.70;90.20
23560;DHT22;11958;50.836;4.438;2022-09-17T00:44:47;12.00;89.80
23560;DHT22;11958;50.836;4.438;2022-09-17T00:49:39;11.60;89.80
23560;DHT22;11958;50.836;4.438;2022-09-17T00:52:11;11.60;90.10
23560;DHT22;11958;50.836;4.438;2022-09-17T00:54:41;11.50;90.00
23560;DHT22;11958;50.836;4.438;2022-09-17T00:57:07;11.40;90.20
23560;DHT22;11958;50.836;4.438;2022-09-17T00:59:34;11.70;90.20
23560;DHT22;11958;50.836;4.438;2022-09-17T01:01:59;11.90;90.40
23560;DHT22;11958;50.836;4.438;2022-09-17T01:04:26;11.80;90.30
23560;DHT22;11958;50.836;4.438;2022-09-17T01:09:40;11.80;90.50
23560;DHT22;11958;50.836;4.438;2022-09-17T01:21:09;12.10;90.30
23560;DHT22;11958;50.836;4.438;2022-09-17T01:24:20;12.00;90.30
23560;DHT22;11958;50.836;4.438;2022-09-17T01:38:33;12.30;89.50
23560;DHT22;11958;50.836;4.438;2022-09-17T01:41:14;12.10;90.50
23560;DHT22;11958;50.836;4.438;2022-09-17T01:43:58;12.20;90.10
23560;DHT22;11958;50.836;4.438;2022-09-17T01:46:29;12.30;89.60
23560;DHT22;11958;50.836;4.438;2022-09-17T01:48:59;12.20;89.80
23560;DHT22;11958;50.836;4.438;2022-09-17T01:51:29;12.20;89.80
23560;DHT22;11958;50.836;4.438;2022-09-17T01:54:00;12.10;90.20
23560;DHT22;11958;50.836;4.438;2022-09-17T02:02:11;12.20;90.10
23560;DHT22;11958;50.836;4.438;2022-09-17T02:04:45;12.20;90.10
23560;DHT22;11958;50.836;4.438;2022-09-17T02:07:19;12.30;89.60
23560;DHT22;11958;50.836;4.438;2022-09-17T02:09:55;12.40;89.30
23560;DHT22;11958;50.836;4.438;2022-09-17T02:12:28;12.00;89.90
23560;DHT22;11958;50.836;4.438;2022-09-17T02:14:57;11.90;90.80
23560;DHT22;11958;50.836;4.438;2022-09-17T02:17:39;12.00;90.70
23560;DHT22;11958;50.836;4.438;2022-09-17T02:20:07;11.80;90.70
23560;DHT22;11958;50.836;4.438;2022-09-17T02:22:47;11.90;90.70
23560;DHT22;11958;50.836;4.438;2022-09-17T02:30:31;12.10;90.10
23560;DHT22;11958;50.836;4.438;2022-09-17T02:32:57;12.10;89.70
23560;DHT22;11958;50.836;4.438;2022-09-17T02:35:23;12.00;89.40
23560;DHT22;11958;50.836;4.438;2022-09-17T02:37:49;12.10;89.20
23560;DHT22;11958;50.836;4.438;2022-09-17T02:40:17;12.00;89.70
23560;DHT22;11958;50.836;4.438;2022-09-17T02:42:58;12.10;89.50
23560;DHT22;11958;50.836;4.438;2022-09-17T02:50:55;12.10;90.20
23560;DHT22;11958;50.836;4.438;2022-09-17T02:53:32;12.30;89.30
23560;DHT22;11958;50.836;4.438;2022-09-17T03:01:41;11.90;91.00
23560;DHT22;11958;50.836;4.438;2022-09-17T03:04:10;12.00;91.00
23560;DHT22;11958;50.836;4.438;2022-09-17T03:06:37;12.20;90.50
23560;DHT22;11958;50.836;4.438;2022-09-17T03:09:04;11.80;91.00
23560;DHT22;11958;50.836;4.438;2022-09-17T03:11:29;12.10;90.40
23560;DHT22;11958;50.836;4.438;2022-09-17T03:13:55;12.10;90.40
23560;DHT22;11958;50.836;4.438;2022-09-17T03:16:22;12.10;90.30
23560;DHT22;11958;50.836;4.438;2022-09-17T03:18:47;12.20;89.50
23560;DHT22;11958;50.836;4.438;2022-09-17T03:21:13;12.30;89.20
23560;DHT22;11958;50.836;4.438;2022-09-17T03:23:38;12.20;89.00
23560;DHT22;11958;50.836;4.438;2022-09-17T03:26:04;12.00;89.30
23560;DHT22;11958;50.836;4.438;2022-09-17T03:28:30;12.10;89.50
23560;DHT22;11958;50.836;4.438;2022-09-17T03:30:55;12.10;89.20
23560;DHT22;11958;50.836;4.438;2022-09-17T03:33:21;12.00;89.50
23560;DHT22;11958;50.836;4.438;2022-09-17T03:35:47;12.00;89.00
23560;DHT22;11958;50.836;4.438;2022-09-17T03:38:13;11.60;89.40
23560;DHT22;11958;50.836;4.438;2022-09-17T03:40:39;11.70;90.20
23560;DHT22;11958;50.836;4.438;2022-09-17T03:43:05;11.80;90.00
23560;DHT22;11958;50.836;4.438;2022-09-17T03:45:31;11.80;90.30
23560;DHT22;11958;50.836;4.438;2022-09-17T03:47:57;11.80;90.10
23560;DHT22;11958;50.836;4.438;2022-09-17T03:50:23;11.70;90.40
23560;DHT22;11958;50.836;4.438;2022-09-17T03:52:48;12.00;89.80
23560;DHT22;11958;50.836;4.438;2022-09-17T03:55:15;12.10;89.40
23560;DHT22;11958;50.836;4.438;2022-09-17T03:57:42;12.10;89.00
23560;DHT22;11958;50.836;4.438;2022-09-17T04:00:08;11.80;89.90
23560;DHT22;11958;50.836;4.438;2022-09-17T04:02:34;11.70;89.50
23560;DHT22;11958;50.836;4.438;2022-09-17T04:05:00;11.80;89.40
23560;DHT22;11958;50.836;4.438;2022-09-17T04:07:25;11.50;90.10
23560;DHT22;11958;50.836;4.438;2022-09-17T04:09:51;11.30;90.50
23560;DHT22;11958;50.836;4.438;2022-09-17T04:12:17;11.00;90.80
23560;DHT22;11958;50.836;4.438;2022-09-17T04:14:42;10.80;91.60
23560;DHT22;11958;50.836;4.438;2022-09-17T04:17:08;11.00;91.50
23560;DHT22;11958;50.836;4.438;2022-09-17T04:19:34;11.00;91.10
23560;DHT22;11958;50.836;4.438;2022-09-17T04:21:59;11.00;91.10
23560;DHT22;11958;50.836;4.438;2022-09-17T04:24:25;10.80;91.30
23560;DHT22;11958;50.836;4.438;2022-09-17T04:26:51;11.10;91.20
23560;DHT22;11958;50.836;4.438;2022-09-17T04:29:16;11.50;89.80
23560;DHT22;11958;50.836;4.438;2022-09-17T04:31:42;11.20;90.00
23560;DHT22;11958;50.836;4.438;2022-09-17T04:34:08;11.20;90.20
23560;DHT22;11958;50.836;4.438;2022-09-17T04:36:34;10.80;90.60
23560;DHT22;11958;50.836;4.438;2022-09-17T04:39:00;10.90;90.90
23560;DHT22;11958;50.836;4.438;2022-09-17T04:41:25;10.90;90.60
23560;DHT22;11958;50.836;4.438;2022-09-17T04:43:51;11.00;90.70
23560;DHT22;11958;50.836;4.438;2022-09-17T04:46:16;10.90;90.70
23560;DHT22;11958;50.836;4.438;2022-09-17T04:48:42;10.90;91.50
23560;DHT22;11958;50.836;4.438;2022-09-17T04:51:08;11.20;91.20
23560;DHT22;11958;50.836;4.438;2022-09-17T04:53:33;11.10;90.60
23560;DHT22;11958;50.836;4.438;2022-09-17T04:55:59;11.30;90.00
23560;DHT22;11958;50.836;4.438;2022-09-17T04:58:25;11.30;90.30
23560;DHT22;11958;50.836;4.438;2022-09-17T05:00:50;11.00;90.20
23560;DHT22;11958;50.836;4.438;2022-09-17T05:03:16;11.10;90.70
23560;DHT22;11958;50.836;4.438;2022-09-17T05:05:42;11.10;90.50
23560;DHT22;11958;50.836;4.438;2022-09-17T05:08:07;10.90;90.10
23560;DHT22;11958;50.836;4.438;2022-09-17T05:10:33;11.60;88.70
23560;DHT22;11958;50.836;4.438;2022-09-17T05:12:59;11.30;89.60
23560;DHT22;11958;50.836;4.438;2022-09-17T05:15:25;11.40;89.40
23560;DHT22;11958;50.836;4.438;2022-09-17T05:17:52;11.10;89.40
23560;DHT22;11958;50.836;4.438;2022-09-17T05:20:18;11.10;89.70
23560;DHT22;11958;50.836;4.438;2022-09-17T05:22:51;11.10;89.70
23560;DHT22;11958;50.836;4.438;2022-09-17T05:25:19;11.10;90.00
23560;DHT22;11958;50.836;4.438;2022-09-17T05:27:45;11.00;89.80
23560;DHT22;11958;50.836;4.438;2022-09-17T05:30:11;10.80;90.80
23560;DHT22;11958;50.836;4.438;2022-09-17T05:32:38;10.90;90.30
23560;DHT22;11958;50.836;4.438;2022-09-17T05:35:05;11.00;90.30
23560;DHT22;11958;50.836;4.438;2022-09-17T05:37:32;11.00;91.10
23560;DHT22;11958;50.836;4.438;2022-09-17T05:39:57;11.20;91.10
23560;DHT22;11958;50.836;4.438;2022-09-17T05:42:23;11.20;90.50
23560;DHT22;11958;50.836;4.438;2022-09-17T05:44:48;11.20;90.50
23560;DHT22;11958;50.836;4.438;2022-09-17T05:47:14;11.50;89.60
23560;DHT22;11958;50.836;4.438;2022-09-17T05:49:40;11.40;90.00
23560;DHT22;11958;50.836;4.438;2022-09-17T05:52:06;11.00;90.70
23560;DHT22;11958;50.836;4.438;2022-09-17T05:54:31;11.10;91.30
23560;DHT22;11958;50.836;4.438;2022-09-17T05:56:57;11.60;91.10
23560;DHT22;11958;50.836;4.438;2022-09-17T05:59:23;11.50;91.00
23560;DHT22;11958;50.836;4.438;2022-09-17T06:01:48;11.60;90.70
23560;DHT22;11958;50.836;4.438;2022-09-17T06:04:15;11.50;90.80
23560;DHT22;11958;50.836;4.438;2022-09-17T06:06:42;11.50;90.90
23560;DHT22;11958;50.836;4.438;2022-09-17T06:09:08;11.30;90.40
23560;DHT22;11958;50.836;4.438;2022-09-17T06:11:35;11.40;91.10
23560;DHT22;11958;50.836;4.438;2022-09-17T06:14:01;11.70;90.00
23560;DHT22;11958;50.836;4.438;2022-09-17T06:16:26;11.50;90.50
23560;DHT22;11958;50.836;4.438;2022-09-17T06:18:52;11.70;91.10
23560;DHT22;11958;50.836;4.438;2022-09-17T06:21:18;11.90;91.40
23560;DHT22;11958;50.836;4.438;2022-09-17T06:23:45;12.00;91.20
23560;DHT22;11958;50.836;4.438;2022-09-17T06:26:12;12.10;91.50
23560;DHT22;11958;50.836;4.438;2022-09-17T06:28:38;12.10;91.40
23560;DHT22;11958;50.836;4.438;2022-09-17T06:31:05;12.00;90.80
23560;DHT22;11958;50.836;4.438;2022-09-17T06:33:32;12.30;90.80
23560;DHT22;11958;50.836;4.438;2022-09-17T06:36:03;12.30;90.30
23560;DHT22;11958;50.836;4.438;2022-09-17T06:38:30;12.20;90.50
23560;DHT22;11958;50.836;4.438;2022-09-17T06:40:59;12.30;90.80
23560;DHT22;11958;50.836;4.438;2022-09-17T06:43:29;12.30;89.00
23560;DHT22;11958;50.836;4.438;2022-09-17T06:45:59;12.20;89.30
23560;DHT22;11958;50.836;4.438;2022-09-17T06:48:25;12.30;90.20
23560;DHT22;11958;50.836;4.438;2022-09-17T06:50:52;12.30;89.60
23560;DHT22;11958;50.836;4.438;2022-09-17T06:53:22;12.20;89.50
23560;DHT22;11958;50.836;4.438;2022-09-17T06:55:47;12.20;90.10
23560;DHT22;11958;50.836;4.438;2022-09-17T06:58:13;12.40;89.40
23560;DHT22;11958;50.836;4.438;2022-09-17T07:00:39;12.60;89.80
23560;DHT22;11958;50.836;4.438;2022-09-17T07:03:05;12.30;88.50
23560;DHT22;11958;50.836;4.438;2022-09-17T07:05:31;12.40;89.30
23560;DHT22;11958;50.836;4.438;2022-09-17T07:08:01;12.50;88.90
23560;DHT22;11958;50.836;4.438;2022-09-17T07:10:30;12.50;89.50
23560;DHT22;11958;50.836;4.438;2022-09-17T07:12:56;12.60;89.00
23560;DHT22;11958;50.836;4.438;2022-09-17T07:15:22;12.70;89.60
23560;DHT22;11958;50.836;4.438;2022-09-17T07:17:47;12.70;87.80
23560;DHT22;11958;50.836;4.438;2022-09-17T07:20:13;12.80;88.60
23560;DHT22;11958;50.836;4.438;2022-09-17T07:22:39;12.70;87.40
23560;DHT22;11958;50.836;4.438;2022-09-17T07:25:05;12.80;87.60
23560;DHT22;11958;50.836;4.438;2022-09-17T07:27:31;12.80;87.60
23560;DHT22;11958;50.836;4.438;2022-09-17T07:29:57;12.70;89.20
23560;DHT22;11958;50.836;4.438;2022-09-17T07:32:23;12.70;87.20
23560;DHT22;11958;50.836;4.438;2022-09-17T07:34:49;12.60;87.90
23560;DHT22;11958;50.836;4.438;2022-09-17T07:37:15;12.70;89.20
23560;DHT22;11958;50.836;4.438;2022-09-17T07:39:41;12.70;89.00
23560;DHT22;11958;50.836;4.438;2022-09-17T07:42:07;12.70;88.00
23560;DHT22;11958;50.836;4.438;2022-09-17T07:44:33;12.80;87.70
23560;DHT22;11958;50.836;4.438;2022-09-17T07:46:59;12.70;87.70
23560;DHT22;11958;50.836;4.438;2022-09-17T07:49:25;12.80;88.40
23560;DHT22;11958;50.836;4.438;2022-09-17T07:51:50;13.00;88.50
23560;DHT22;11958;50.836;4.438;2022-09-17T07:54:16;13.20;88.60
23560;DHT22;11958;50.836;4.438;2022-09-17T07:56:42;13.30;86.60
23560;DHT22;11958;50.836;4.438;2022-09-17T07:59:08;13.40;86.30
23560;DHT22;11958;50.836;4.438;2022-09-17T08:01:34;13.20;86.60
23560;DHT22;11958;50.836;4.438;2022-09-17T08:04:01;13.40;87.90
23560;DHT22;11958;50.836;4.438;2022-09-17T08:06:27;13.50;87.00
23560;DHT22;11958;50.836;4.438;2022-09-17T08:08:54;13.60;87.00
23560;DHT22;11958;50.836;4.438;2022-09-17T08:11:23;13.80;87.20
23560;DHT22;11958;50.836;4.438;2022-09-17T08:13:51;13.80;85.20
23560;DHT22;11958;50.836;4.438;2022-09-17T08:16:17;13.60;84.80
23560;DHT22;11958;50.836;4.438;2022-09-17T08:18:44;13.80;85.30
23560;DHT22;11958;50.836;4.438;2022-09-17T08:21:12;13.70;84.70
23560;DHT22;11958;50.836;4.438;2022-09-17T08:23:39;13.40;86.30
23560;DHT22;11958;50.836;4.438;2022-09-17T08:26:07;13.60;86.50
23560;DHT22;11958;50.836;4.438;2022-09-17T08:28:35;13.50;86.10
23560;DHT22;11958;50.836;4.438;2022-09-17T08:31:03;13.20;86.40
23560;DHT22;11958;50.836;4.438;2022-09-17T08:33:34;13.30;86.90
23560;DHT22;11958;50.836;4.438;2022-09-17T08:36:00;13.50;86.40
23560;DHT22;11958;50.836;4.438;2022-09-17T08:38:27;13.30;85.50
23560;DHT22;11958;50.836;4.438;2022-09-17T08:41:22;13.20;87.00
23560;DHT22;11958;50.836;4.438;2022-09-17T08:43:55;13.20;87.60
23560;DHT22;11958;50.836;4.438;2022-09-17T08:46:24;13.30;86.50
23560;DHT22;11958;50.836;4.438;2022-09-17T08:48:59;13.60;87.60
23560;DHT22;11958;50.836;4.438;2022-09-17T08:51:42;13.80;87.30
23560;DHT22;11958;50.836;4.438;2022-09-17T08:57:25;14.20;84.30
23560;DHT22;11958;50.836;4.438;2022-09-17T09:00:10;14.30;83.60
23560;DHT22;11958;50.836;4.438;2022-09-17T09:05:49;14.50;84.30
23560;DHT22;11958;50.836;4.438;2022-09-17T09:08:21;14.30;83.30
23560;DHT22;11958;50.836;4.438;2022-09-17T09:10:57;14.30;84.60
23560;DHT22;11958;50.836;4.438;2022-09-17T09:13:30;14.60;84.80
23560;DHT22;11958;50.836;4.438;2022-09-17T09:16:06;14.70;83.80
23560;DHT22;11958;50.836;4.438;2022-09-17T09:18:39;14.90;83.00
23560;DHT22;11958;50.836;4.438;2022-09-17T09:21:44;14.80;82.80
23560;DHT22;11958;50.836;4.438;2022-09-17T09:24:22;14.60;81.50
23560;DHT22;11958;50.836;4.438;2022-09-17T09:38:45;14.90;79.50
23560;DHT22;11958;50.836;4.438;2022-09-17T09:41:09;15.10;80.70
23560;DHT22;11958;50.836;4.438;2022-09-17T09:43:52;15.00;79.40
23560;DHT22;11958;50.836;4.438;2022-09-17T09:49:18;15.10;81.30
23560;DHT22;11958;50.836;4.438;2022-09-17T09:57:00;15.00;79.20
23560;DHT22;11958;50.836;4.438;2022-09-17T09:59:29;14.90;79.00
23560;DHT22;11958;50.836;4.438;2022-09-17T10:01:55;15.00;78.80
23560;DHT22;11958;50.836;4.438;2022-09-17T10:04:25;14.90;78.40
23560;DHT22;11958;50.836;4.438;2022-09-17T10:06:53;15.20;79.50
23560;DHT22;11958;50.836;4.438;2022-09-17T10:09:21;15.40;77.40
23560;DHT22;11958;50.836;4.438;2022-09-17T10:14:35;15.40;77.20
23560;DHT22;11958;50.836;4.438;2022-09-17T10:17:22;15.50;76.70
23560;DHT22;11958;50.836;4.438;2022-09-17T10:22:41;15.70;76.60
23560;DHT22;11958;50.836;4.438;2022-09-17T10:27:49;15.80;77.10
23560;DHT22;11958;50.836;4.438;2022-09-17T10:30:16;15.90;73.10
23560;DHT22;11958;50.836;4.438;2022-09-17T10:32:43;15.40;72.30
23560;DHT22;11958;50.836;4.438;2022-09-17T10:37:51;15.20;75.50
23560;DHT22;11958;50.836;4.438;2022-09-17T10:42:43;15.40;76.20
23560;DHT22;11958;50.836;4.438;2022-09-17T10:45:23;15.20;76.20
23560;DHT22;11958;50.836;4.438;2022-09-17T10:47:49;15.40;76.90
23560;DHT22;11958;50.836;4.438;2022-09-17T10:50:17;15.40;73.00
23560;DHT22;11958;50.836;4.438;2022-09-17T10:52:48;15.40;75.50
23560;DHT22;11958;50.836;4.438;2022-09-17T10:55:36;15.30;76.80
23560;DHT22;11958;50.836;4.438;2022-09-17T11:01:00;15.40;75.90
23560;DHT22;11958;50.836;4.438;2022-09-17T11:09:29;15.70;72.90
23560;DHT22;11958;50.836;4.438;2022-09-17T11:36:30;14.40;79.70
23560;DHT22;11958;50.836;4.438;2022-09-17T11:39:13;14.40;78.40
23560;DHT22;11958;50.836;4.438;2022-09-17T11:41:42;14.30;80.30
23560;DHT22;11958;50.836;4.438;2022-09-17T11:44:31;14.60;79.10
23560;DHT22;11958;50.836;4.438;2022-09-17T11:47:07;14.80;79.10
23560;DHT22;11958;50.836;4.438;2022-09-17T11:49:53;15.00;78.80
23560;DHT22;11958;50.836;4.438;2022-09-17T11:52:42;15.10;78.10
23560;DHT22;11958;50.836;4.438;2022-09-17T11:55:26;14.80;78.40
23560;DHT22;11958;50.836;4.438;2022-09-17T11:57:59;15.00;80.10
23560;DHT22;11958;50.836;4.438;2022-09-17T12:00:27;15.30;76.60
23560;DHT22;11958;50.836;4.438;2022-09-17T12:05:50;15.80;76.10
23560;DHT22;11958;50.836;4.438;2022-09-17T12:08:42;16.40;75.90
23560;DHT22;11958;50.836;4.438;2022-09-17T12:11:29;17.30;69.30
23560;DHT22;11958;50.836;4.438;2022-09-17T12:16:51;19.80;58.40
23560;DHT22;11958;50.836;4.438;2022-09-17T12:19:30;19.30;56.20
23560;DHT22;11958;50.836;4.438;2022-09-17T12:22:20;19.00;58.10
23560;DHT22;11958;50.836;4.438;2022-09-17T12:24:52;18.40;60.10
23560;DHT22;11958;50.836;4.438;2022-09-17T12:30:06;19.90;55.40
23560;DHT22;11958;50.836;4.438;2022-09-17T12:32:56;20.40;52.90
23560;DHT22;11958;50.836;4.438;2022-09-17T12:42:28;21.70;47.20
23560;DHT22;11958;50.836;4.438;2022-09-17T13:00:24;16.70;70.60
23560;DHT22;11958;50.836;4.438;2022-09-17T13:03:19;16.20;72.30
23560;DHT22;11958;50.836;4.438;2022-09-17T13:13:53;14.60;80.10
23560;DHT22;11958;50.836;4.438;2022-09-17T13:19:20;14.40;79.20
23560;DHT22;11958;50.836;4.438;2022-09-17T13:21:53;14.10;81.10
23560;DHT22;11958;50.836;4.438;2022-09-17T13:24:22;14.00;82.10
23560;DHT22;11958;50.836;4.438;2022-09-17T13:26:51;14.10;84.40
23560;DHT22;11958;50.836;4.438;2022-09-17T13:37:42;16.90;73.20
23560;DHT22;11958;50.836;4.438;2022-09-17T13:40:23;18.80;68.10
23560;DHT22;11958;50.836;4.438;2022-09-17T13:42:57;19.70;59.90
23560;DHT22;11958;50.836;4.438;2022-09-17T13:45:25;19.20;59.90
23560;DHT22;11958;50.836;4.438;2022-09-17T13:47:57;19.90;56.50
23560;DHT22;11958;50.836;4.438;2022-09-17T13:50:35;21.20;55.10
23560;DHT22;11958;50.836;4.438;2022-09-17T13:53:17;22.60;52.40
23560;DHT22;11958;50.836;4.438;2022-09-17T13:55:54;24.10;46.80
23560;DHT22;11958;50.836;4.438;2022-09-17T13:58:29;24.70;42.30
23560;DHT22;11958;50.836;4.438;2022-09-17T14:00:55;25.10;41.20
23560;DHT22;11958;50.836;4.438;2022-09-17T14:05:57;24.60;38.40
23560;DHT22;11958;50.836;4.438;2022-09-17T14:08:47;23.40;41.00
23560;DHT22;11958;50.836;4.438;2022-09-17T14:16:33;20.00;48.90
23560;DHT22;11958;50.836;4.438;2022-09-17T14:22:01;18.60;51.70
23560;DHT22;11958;50.836;4.438;2022-09-17T14:29:40;17.90;56.90
23560;DHT22;11958;50.836;4.438;2022-09-17T14:32:17;17.80;55.80
23560;DHT22;11958;50.836;4.438;2022-09-17T14:34:46;17.80;57.60
23560;DHT22;11958;50.836;4.438;2022-09-17T14:37:15;17.40;58.50
23560;DHT22;11958;50.836;4.438;2022-09-17T14:39:42;16.50;58.40
23560;DHT22;11958;50.836;4.438;2022-09-17T14:42:20;15.70;63.40
23560;DHT22;11958;50.836;4.438;2022-09-17T14:44:58;15.10;70.00
23560;DHT22;11958;50.836;4.438;2022-09-17T14:47:25;14.60;72.40
23560;DHT22;11958;50.836;4.438;2022-09-17T14:49:51;14.50;75.30
23560;DHT22;11958;50.836;4.438;2022-09-17T14:52:31;14.30;73.70
23560;DHT22;11958;50.836;4.438;2022-09-17T14:57:54;14.20;77.30
23560;DHT22;11958;50.836;4.438;2022-09-17T15:00:26;14.50;76.20
23560;DHT22;11958;50.836;4.438;2022-09-17T15:02:56;14.70;75.80
23560;DHT22;11958;50.836;4.438;2022-09-17T15:05:27;14.90;73.60
23560;DHT22;11958;50.836;4.438;2022-09-17T15:08:25;15.00;72.50
23560;DHT22;11958;50.836;4.438;2022-09-17T15:11:00;15.00;74.00
23560;DHT22;11958;50.836;4.438;2022-09-17T15:13:33;15.30;75.00
23560;DHT22;11958;50.836;4.438;2022-09-17T15:16:20;15.20;74.20
23560;DHT22;11958;50.836;4.438;2022-09-17T15:18:49;15.30;73.30
23560;DHT22;11958;50.836;4.438;2022-09-17T15:23:58;15.50;73.30
23560;DHT22;11958;50.836;4.438;2022-09-17T15:26:30;15.30;73.00
23560;DHT22;11958;50.836;4.438;2022-09-17T15:28:58;15.30;73.70
23560;DHT22;11958;50.836;4.438;2022-09-17T15:31:27;15.10;74.60
23560;DHT22;11958;50.836;4.438;2022-09-17T15:33:53;15.30;75.40
23560;DHT22;11958;50.836;4.438;2022-09-17T15:36:23;15.10;74.10
23560;DHT22;11958;50.836;4.438;2022-09-17T15:38:50;15.00;74.80
23560;DHT22;11958;50.836;4.438;2022-09-17T15:41:30;14.90;75.50
23560;DHT22;11958;50.836;4.438;2022-09-17T15:44:26;15.00;74.40
23560;DHT22;11958;50.836;4.438;2022-09-17T15:46:52;14.90;74.80
23560;DHT22;11958;50.836;4.438;2022-09-17T15:49:52;15.00;74.90
23560;DHT22;11958;50.836;4.438;2022-09-17T15:52:33;15.00;73.90
23560;DHT22;11958;50.836;4.438;2022-09-17T15:54:59;14.90;74.60
23560;DHT22;11958;50.836;4.438;2022-09-17T15:57:26;14.90;74.10
23560;DHT22;11958;50.836;4.438;2022-09-17T15:59:53;14.90;73.60
23560;DHT22;11958;50.836;4.438;2022-09-17T16:02:30;15.00;73.00
23560;DHT22;11958;50.836;4.438;2022-09-17T16:07:45;14.90;73.70
23560;DHT22;11958;50.836;4.438;2022-09-17T16:10:13;14.70;77.00
23560;DHT22;11958;50.836;4.438;2022-09-17T16:12:39;14.30;77.90
23560;DHT22;11958;50.836;4.438;2022-09-17T16:15:06;14.10;79.20
23560;DHT22;11958;50.836;4.438;2022-09-17T16:22:34;13.70;80.00
23560;DHT22;11958;50.836;4.438;2022-09-17T16:25:00;13.80;82.00
23560;DHT22;11958;50.836;4.438;2022-09-17T16:27:28;14.10;81.80
23560;DHT22;11958;50.836;4.438;2022-09-17T16:30:04;14.30;81.10
23560;DHT22;11958;50.836;4.438;2022-09-17T16:32:30;14.60;81.00
23560;DHT22;11958;50.836;4.438;2022-09-17T16:34:56;14.50;80.40
23560;DHT22;11958;50.836;4.438;2022-09-17T16:37:22;14.40;79.40
23560;DHT22;11958;50.836;4.438;2022-09-17T16:39:47;14.40;79.90
23560;DHT22;11958;50.836;4.438;2022-09-17T16:42:13;14.20;79.70
23560;DHT22;11958;50.836;4.438;2022-09-17T16:44:39;14.30;81.00
23560;DHT22;11958;50.836;4.438;2022-09-17T16:47:04;14.40;78.80
23560;DHT22;11958;50.836;4.438;2022-09-17T16:49:30;14.30;80.40
23560;DHT22;11958;50.836;4.438;2022-09-17T16:51:56;14.10;80.20
23560;DHT22;11958;50.836;4.438;2022-09-17T16:54:21;14.10;81.10
23560;DHT22;11958;50.836;4.438;2022-09-17T16:56:47;14.00;79.90
23560;DHT22;11958;50.836;4.438;2022-09-17T16:59:13;14.00;81.40
23560;DHT22;11958;50.836;4.438;2022-09-17T17:01:39;13.90;81.90
23560;DHT22;11958;50.836;4.438;2022-09-17T17:04:04;13.80;83.00
23560;DHT22;11958;50.836;4.438;2022-09-17T17:06:30;13.80;82.70
23560;DHT22;11958;50.836;4.438;2022-09-17T17:08:57;13.80;83.20
23560;DHT22;11958;50.836;4.438;2022-09-17T17:11:25;13.90;82.70
23560;DHT22;11958;50.836;4.438;2022-09-17T17:13:52;13.80;82.50
23560;DHT22;11958;50.836;4.438;2022-09-17T17:16:20;14.00;81.70
23560;DHT22;11958;50.836;4.438;2022-09-17T17:18:46;13.80;82.30
23560;DHT22;11958;50.836;4.438;2022-09-17T17:21:13;13.70;82.40
23560;DHT22;11958;50.836;4.438;2022-09-17T17:23:39;13.90;82.30
23560;DHT22;11958;50.836;4.438;2022-09-17T17:26:08;13.80;80.60
23560;DHT22;11958;50.836;4.438;2022-09-17T17:28:34;13.40;82.90
23560;DHT22;11958;50.836;4.438;2022-09-17T17:31:01;13.40;81.70
23560;DHT22;11958;50.836;4.438;2022-09-17T17:33:27;13.30;82.50
23560;DHT22;11958;50.836;4.438;2022-09-17T17:35:53;13.20;82.40
23560;DHT22;11958;50.836;4.438;2022-09-17T17:38:19;13.30;83.30
23560;DHT22;11958;50.836;4.438;2022-09-17T17:40:45;13.30;83.40
23560;DHT22;11958;50.836;4.438;2022-09-17T17:43:11;13.30;82.80
23560;DHT22;11958;50.836;4.438;2022-09-17T17:45:39;13.40;82.10
23560;DHT22;11958;50.836;4.438;2022-09-17T17:48:05;13.60;83.00
23560;DHT22;11958;50.836;4.438;2022-09-17T17:50:31;13.40;81.80
23560;DHT22;11958;50.836;4.438;2022-09-17T17:52:57;13.20;82.70
23560;DHT22;11958;50.836;4.438;2022-09-17T17:55:23;13.30;83.50
23560;DHT22;11958;50.836;4.438;2022-09-17T17:57:56;13.30;83.00
23560;DHT22;11958;50.836;4.438;2022-09-17T18:00:22;13.40;82.80
23560;DHT22;11958;50.836;4.438;2022-09-17T18:02:49;13.70;82.20
23560;DHT22;11958;50.836;4.438;2022-09-17T18:05:15;13.40;82.80
23560;DHT22;11958;50.836;4.438;2022-09-17T18:07:40;13.50;82.00
23560;DHT22;11958;50.836;4.438;2022-09-17T18:10:06;13.40;82.60
23560;DHT22;11958;50.836;4.438;2022-09-17T18:12:32;13.30;81.90
23560;DHT22;11958;50.836;4.438;2022-09-17T18:14:57;13.30;83.40
23560;DHT22;11958;50.836;4.438;2022-09-17T18:17:23;13.40;82.70
23560;DHT22;11958;50.836;4.438;2022-09-17T18:19:49;13.60;81.80
23560;DHT22;11958;50.836;4.438;2022-09-17T18:22:15;13.60;83.00
23560;DHT22;11958;50.836;4.438;2022-09-17T18:24:42;13.50;82.40
23560;DHT22;11958;50.836;4.438;2022-09-17T18:27:08;13.60;82.90
23560;DHT22;11958;50.836;4.438;2022-09-17T18:29:34;13.40;83.30
23560;DHT22;11958;50.836;4.438;2022-09-17T18:31:59;13.40;83.90
23560;DHT22;11958;50.836;4.438;2022-09-17T18:34:25;13.20;85.10
23560;DHT22;11958;50.836;4.438;2022-09-17T18:36:51;13.40;85.50
23560;DHT22;11958;50.836;4.438;2022-09-17T18:39:17;13.50;84.90
23560;DHT22;11958;50.836;4.438;2022-09-17T18:41:44;13.60;84.90
23560;DHT22;11958;50.836;4.438;2022-09-17T18:44:10;13.20;85.50
23560;DHT22;11958;50.836;4.438;2022-09-17T18:46:36;13.40;86.10
23560;DHT22;11958;50.836;4.438;2022-09-17T18:49:03;13.20;86.00
23560;DHT22;11958;50.836;4.438;2022-09-17T18:51:29;13.30;86.20
23560;DHT22;11958;50.836;4.438;2022-09-17T18:53:57;13.20;86.80
23560;DHT22;11958;50.836;4.438;2022-09-17T18:56:25;13.40;87.10
23560;DHT22;11958;50.836;4.438;2022-09-17T18:58:53;13.10;87.90
23560;DHT22;11958;50.836;4.438;2022-09-17T19:01:21;13.00;88.70
23560;DHT22;11958;50.836;4.438;2022-09-17T19:03:48;12.90;88.90